createdAt,value
2018-04-29T00:02:07.420Z,14.20
2018-04-29T00:04:34.775Z,14.20
2018-04-29T00:07:02.277Z,14.20
2018-04-29T00:09:30.352Z,14.30
2018-04-29T00:11:57.190Z,14.30
2018-04-29T00:14:25.030Z,14.10
2018-04-29T00:16:51.547Z,14.00
2018-04-29T00:19:17.822Z,14.00
2018-04-29T00:21:44.099Z,14.00
2018-04-29T00:24:12.082Z,13.90
2018-04-29T00:26:38.774Z,13.90
2018-04-29T00:29:05.913Z,14.10
2018-04-29T00:31:32.556Z,14.00
2018-04-29T00:33:58.880Z,13.90
2018-04-29T00:36:25.768Z,13.90
2018-04-29T00:41:26.950Z,13.80
2018-04-29T00:43:54.413Z,13.70
2018-04-29T00:46:21.754Z,13.70
2018-04-29T00:48:48.156Z,13.80
2018-04-29T00:51:14.546Z,13.80
2018-04-29T00:53:41.387Z,13.80
2018-04-29T00:56:07.592Z,13.80
2018-04-29T00:58:34.299Z,13.80
2018-04-29T01:01:00.615Z,13.80
2018-04-29T01:03:26.682Z,13.80
2018-04-29T01:05:54.296Z,13.80
2018-04-29T01:08:21.422Z,13.70
2018-04-29T01:10:48.792Z,13.80
2018-04-29T01:13:14.958Z,13.70
2018-04-29T01:15:41.260Z,13.80
2018-04-29T01:18:08.212Z,13.70
2018-04-29T01:20:34.717Z,13.60
2018-04-29T01:23:01.929Z,13.50
2018-04-29T01:25:28.093Z,13.50
2018-04-29T01:27:56.267Z,13.50
2018-04-29T01:30:22.403Z,13.50
2018-04-29T01:32:48.762Z,13.50
2018-04-29T01:35:15.783Z,13.30
2018-04-29T01:37:43.339Z,13.30
2018-04-29T01:40:10.409Z,13.40
2018-04-29T01:42:37.490Z,13.40
2018-04-29T01:45:07.465Z,13.40
2018-04-29T01:47:33.696Z,13.50
2018-04-29T01:50:01.646Z,13.50
2018-04-29T01:52:28.528Z,13.50
2018-04-29T01:54:55.893Z,13.40
2018-04-29T01:57:22.095Z,13.50
2018-04-29T01:59:48.356Z,13.50
2018-04-29T02:02:16.470Z,13.50
2018-04-29T02:04:42.837Z,13.40
2018-04-29T02:07:09.680Z,13.40
2018-04-29T02:09:35.928Z,13.40
2018-04-29T02:12:02.207Z,13.40
2018-04-29T02:14:28.489Z,13.40
2018-04-29T02:16:54.865Z,13.40
2018-04-29T02:19:21.239Z,13.40
2018-04-29T02:21:49.215Z,13.40
2018-04-29T02:24:15.587Z,13.30
2018-04-29T02:26:42.248Z,13.30
2018-04-29T02:29:08.560Z,13.30
2018-04-29T02:31:34.955Z,13.20
2018-04-29T02:34:01.910Z,13.20
2018-04-29T02:36:28.072Z,13.10
2018-04-29T02:38:54.533Z,13.10
2018-04-29T02:41:22.079Z,13.00
2018-04-29T02:43:48.733Z,12.80
2018-04-29T02:46:14.949Z,12.70
2018-04-29T02:48:41.068Z,12.60
2018-04-29T02:51:07.317Z,12.50
2018-04-29T02:53:33.540Z,12.40
2018-04-29T02:55:59.911Z,12.30
2018-04-29T02:58:26.303Z,12.50
2018-04-29T03:00:52.509Z,12.70
2018-04-29T03:03:18.814Z,12.70
2018-04-29T03:05:45.145Z,12.80
2018-04-29T03:08:11.610Z,12.70
2018-04-29T03:10:38.978Z,12.60
2018-04-29T03:13:07.093Z,12.40
2018-04-29T03:15:33.800Z,12.40
2018-04-29T03:18:01.124Z,12.50
2018-04-29T03:20:27.319Z,12.60
2018-04-29T03:22:53.464Z,12.70
2018-04-29T03:25:21.062Z,12.70
2018-04-29T03:27:47.495Z,12.70
2018-04-29T03:30:14.692Z,12.70
2018-04-29T03:32:41.053Z,12.70
2018-04-29T03:35:07.339Z,12.70
2018-04-29T03:37:34.046Z,12.80
2018-04-29T03:40:00.341Z,12.80
2018-04-29T03:42:30.548Z,12.80
2018-04-29T03:44:56.765Z,12.80
2018-04-29T03:47:22.992Z,12.80
2018-04-29T03:49:50.157Z,12.80
2018-04-29T03:52:16.309Z,12.70
2018-04-29T03:54:42.443Z,12.70
2018-04-29T03:57:20.750Z,12.60
2018-04-29T03:59:59.034Z,12.60
2018-04-29T04:02:37.357Z,12.40
2018-04-29T04:05:03.759Z,12.10
2018-04-29T04:07:30.307Z,12.10
2018-04-29T04:09:56.350Z,12.00
2018-04-29T04:12:22.454Z,12.10
2018-04-29T04:14:48.700Z,12.10
2018-04-29T04:17:14.893Z,12.00
2018-04-29T04:19:41.035Z,11.90
2018-04-29T04:22:08.533Z,11.80
2018-04-29T04:24:36.092Z,11.80
2018-04-29T04:27:02.650Z,11.90
2018-04-29T04:29:32.057Z,12.10
2018-04-29T04:31:58.263Z,12.20
2018-04-29T04:34:25.579Z,12.30
2018-04-29T04:36:51.975Z,12.40
2018-04-29T04:39:20.013Z,12.50
2018-04-29T04:41:48.725Z,12.50
2018-04-29T04:44:15.219Z,12.50
2018-04-29T04:46:42.102Z,12.60
2018-04-29T04:49:11.204Z,12.50
2018-04-29T04:51:37.691Z,12.50
2018-04-29T04:54:03.917Z,12.50
2018-04-29T04:56:31.272Z,12.50
2018-04-29T04:58:57.441Z,12.40
2018-04-29T05:01:24.374Z,12.50
2018-04-29T05:03:54.246Z,12.40
2018-04-29T05:06:20.482Z,12.50
2018-04-29T05:08:46.857Z,12.40
2018-04-29T05:11:13.050Z,12.40
2018-04-29T05:13:41.024Z,12.50
2018-04-29T05:16:07.362Z,12.50
2018-04-29T05:18:33.611Z,12.40
2018-04-29T05:23:32.813Z,12.60
2018-04-29T05:25:59.146Z,12.60
2018-04-29T05:28:25.331Z,12.60
2018-04-29T05:30:51.771Z,12.70
2018-04-29T05:33:18.026Z,12.80
2018-04-29T05:35:46.051Z,12.70
2018-04-29T05:38:12.376Z,12.70
2018-04-29T05:40:38.697Z,12.70
2018-04-29T05:43:06.568Z,12.80
2018-04-29T05:45:35.554Z,12.80
2018-04-29T05:48:02.556Z,13.00
2018-04-29T05:50:28.951Z,12.90
2018-04-29T05:52:56.152Z,13.20
2018-04-29T05:55:23.831Z,13.30
2018-04-29T05:57:50.143Z,13.40
2018-04-29T06:00:17.560Z,13.40
2018-04-29T06:02:46.032Z,13.40
2018-04-29T06:05:13.492Z,13.40
2018-04-29T06:07:41.422Z,13.30
2018-04-29T06:10:07.574Z,13.20
2018-04-29T06:12:34.147Z,13.20
2018-04-29T06:15:01.227Z,13.20
2018-04-29T06:17:36.879Z,13.20
2018-04-29T06:20:03.158Z,13.20
2018-04-29T06:22:29.381Z,13.40
2018-04-29T06:24:55.483Z,13.40
2018-04-29T06:27:21.660Z,13.40
2018-04-29T06:29:47.881Z,13.50
2018-04-29T06:32:14.291Z,13.50
2018-04-29T06:34:40.870Z,13.60
2018-04-29T06:37:08.366Z,13.70
2018-04-29T06:39:35.761Z,13.70
2018-04-29T06:42:03.839Z,13.60
2018-04-29T06:44:32.360Z,13.50
2018-04-29T06:46:58.692Z,13.40
2018-04-29T06:49:25.288Z,13.40
2018-04-29T06:51:51.836Z,13.40
2018-04-29T06:54:19.262Z,13.50
2018-04-29T06:56:46.599Z,13.50
2018-04-29T06:59:13.592Z,13.40
2018-04-29T07:01:39.922Z,13.50
2018-04-29T07:04:06.221Z,13.40
2018-04-29T07:06:32.738Z,13.30
2018-04-29T07:09:00.771Z,13.50
2018-04-29T07:11:27.745Z,13.40
2018-04-29T07:13:55.633Z,13.60
2018-04-29T07:16:23.150Z,13.80
2018-04-29T07:18:50.349Z,14.20
2018-04-29T07:21:17.300Z,14.20
2018-04-29T07:23:44.736Z,14.10
2018-04-29T07:26:11.380Z,14.20
2018-04-29T07:28:38.589Z,14.30
2018-04-29T07:31:05.224Z,14.40
2018-04-29T07:33:31.668Z,14.30
2018-04-29T07:35:58.931Z,14.30
2018-04-29T07:38:27.070Z,14.50
2018-04-29T07:40:53.399Z,14.50
2018-04-29T07:43:19.809Z,14.60
2018-04-29T07:45:46.088Z,14.50
2018-04-29T07:48:12.561Z,14.60
2018-04-29T07:50:39.181Z,14.70
2018-04-29T07:53:06.562Z,14.90
2018-04-29T07:55:33.911Z,14.90
2018-04-29T07:58:00.382Z,14.80
2018-04-29T08:00:28.207Z,14.70
2018-04-29T08:02:58.440Z,14.70
2018-04-29T08:05:29.604Z,14.80
2018-04-29T08:07:57.038Z,14.80
2018-04-29T08:10:24.775Z,14.80
2018-04-29T08:12:51.552Z,14.70
2018-04-29T08:15:18.406Z,14.80
2018-04-29T08:17:46.430Z,14.80
2018-04-29T08:20:14.341Z,14.70
2018-04-29T08:22:40.804Z,14.90
2018-04-29T08:25:08.035Z,15.20
2018-04-29T08:27:59.710Z,15.10
2018-04-29T08:30:26.135Z,15.30
2018-04-29T08:32:57.963Z,15.20
2018-04-29T08:35:25.359Z,14.90
2018-04-29T08:37:52.748Z,14.70
2018-04-29T08:40:21.549Z,14.50
2018-04-29T08:42:47.758Z,14.50
2018-04-29T08:45:14.950Z,14.40
2018-04-29T08:47:44.139Z,14.50
2018-04-29T08:50:13.055Z,14.40
2018-04-29T08:52:39.425Z,14.60
2018-04-29T08:55:05.759Z,14.60
2018-04-29T08:57:32.496Z,14.60
2018-04-29T08:59:59.640Z,14.70
2018-04-29T09:02:25.889Z,14.70
2018-04-29T09:04:53.114Z,14.70
2018-04-29T09:07:20.002Z,14.60
2018-04-29T09:09:47.051Z,14.80
2018-04-29T09:12:15.104Z,14.80
2018-04-29T09:14:41.673Z,14.80
2018-04-29T09:17:08.892Z,14.80
2018-04-29T09:19:35.378Z,15.00
2018-04-29T09:22:02.970Z,15.20
2018-04-29T09:24:30.049Z,15.40
2018-04-29T09:26:58.255Z,15.60
2018-04-29T09:29:46.865Z,15.70
2018-04-29T09:32:14.296Z,15.90
2018-04-29T09:34:41.433Z,15.90
2018-04-29T09:37:07.737Z,16.20
2018-04-29T09:39:35.419Z,16.30
2018-04-29T09:42:01.743Z,16.30
2018-04-29T09:44:28.347Z,16.50
2018-04-29T09:46:55.333Z,16.60
2018-04-29T09:49:23.238Z,16.60
2018-04-29T09:51:51.623Z,16.60
2018-04-29T09:54:18.682Z,16.80
2018-04-29T09:56:45.114Z,16.70
2018-04-29T09:59:11.892Z,16.80
2018-04-29T10:01:39.865Z,16.80
2018-04-29T10:04:07.064Z,16.90
2018-04-29T10:06:33.469Z,16.90
2018-04-29T10:08:59.847Z,17.10
2018-04-29T10:11:26.916Z,17.10
2018-04-29T10:13:53.843Z,17.10
2018-04-29T10:16:20.038Z,17.30
2018-04-29T10:18:46.918Z,17.70
2018-04-29T10:21:13.939Z,17.90
2018-04-29T10:23:40.338Z,17.80
2018-04-29T10:26:08.165Z,18.20
2018-04-29T10:28:35.454Z,18.10
2018-04-29T10:31:02.538Z,18.50
2018-04-29T10:33:31.022Z,18.40
2018-04-29T10:35:58.191Z,18.60
2018-04-29T10:38:25.460Z,18.80
2018-04-29T10:40:53.565Z,18.80
2018-04-29T10:43:22.042Z,18.90
2018-04-29T10:45:50.312Z,18.80
2018-04-29T10:48:17.351Z,18.90
2018-04-29T10:50:44.360Z,18.90
2018-04-29T10:53:10.545Z,18.90
2018-04-29T10:55:36.715Z,19.00
2018-04-29T10:58:03.766Z,19.10
2018-04-29T11:00:29.894Z,19.30
2018-04-29T11:02:57.203Z,19.60
2018-04-29T11:05:23.987Z,19.70
2018-04-29T11:07:50.380Z,19.90
2018-04-29T11:10:18.389Z,20.10
2018-04-29T11:12:44.616Z,20.00
2018-04-29T11:15:12.502Z,20.40
2018-04-29T11:17:38.953Z,20.30
2018-04-29T11:20:05.217Z,20.60
2018-04-29T11:22:31.344Z,20.80
2018-04-29T11:25:00.685Z,20.90
2018-04-29T11:27:26.854Z,21.00
2018-04-29T11:29:53.573Z,20.90
2018-04-29T11:32:19.753Z,20.90
2018-04-29T11:34:49.166Z,21.00
2018-04-29T11:37:15.848Z,20.70
2018-04-29T11:39:42.335Z,20.70
2018-04-29T11:42:10.633Z,20.80
2018-04-29T11:44:36.826Z,21.00
2018-04-29T11:47:03.064Z,21.00
2018-04-29T11:49:29.619Z,21.30
2018-04-29T11:51:55.695Z,21.50
2018-04-29T11:54:21.963Z,21.50
2018-04-29T11:56:50.835Z,22.00
2018-04-29T11:59:18.019Z,22.30
2018-04-29T12:01:44.303Z,22.20
2018-04-29T12:04:12.065Z,22.60
2018-04-29T12:06:39.530Z,22.70
2018-04-29T12:09:05.892Z,22.70
2018-04-29T12:11:34.981Z,22.90
2018-04-29T12:14:01.274Z,22.90
2018-04-29T12:16:27.800Z,22.90
2018-04-29T12:18:53.935Z,23.20
2018-04-29T12:21:20.183Z,23.60
2018-04-29T12:23:47.534Z,23.80
2018-04-29T12:26:15.000Z,24.10
2018-04-29T12:28:41.203Z,24.40
2018-04-29T12:31:07.316Z,24.60
2018-04-29T12:33:33.680Z,24.70
2018-04-29T12:36:00.020Z,24.70
2018-04-29T12:38:26.406Z,24.90
2018-04-29T12:40:52.809Z,25.30
2018-04-29T12:43:19.222Z,25.40
2018-04-29T12:45:46.543Z,25.30
2018-04-29T12:48:13.180Z,25.30
2018-04-29T12:50:45.564Z,25.40
2018-04-29T12:53:12.455Z,25.80
2018-04-29T12:55:38.761Z,25.70
2018-04-29T12:58:04.930Z,25.60
2018-04-29T13:00:31.219Z,25.50
2018-04-29T13:02:58.066Z,25.40
2018-04-29T13:05:25.315Z,25.60
2018-04-29T13:07:51.669Z,25.50
2018-04-29T13:10:19.460Z,25.90
2018-04-29T13:12:46.104Z,26.30
2018-04-29T13:15:13.357Z,26.50
2018-04-29T13:17:40.590Z,26.70
2018-04-29T13:20:06.721Z,26.90
2018-04-29T13:22:33.978Z,26.70
2018-04-29T13:25:02.891Z,26.80
2018-04-29T13:27:29.826Z,26.70
2018-04-29T13:29:56.086Z,26.60
2018-04-29T13:32:22.946Z,26.80
2018-04-29T13:34:49.103Z,26.70
2018-04-29T13:37:15.238Z,27.00
2018-04-29T13:39:41.772Z,27.20
2018-04-29T13:42:09.048Z,27.30
2018-04-29T13:44:35.171Z,27.60
2018-04-29T13:47:02.100Z,28.00
2018-04-29T13:49:30.479Z,28.30
2018-04-29T13:51:56.655Z,28.50
2018-04-29T13:54:23.630Z,28.60
2018-04-29T13:56:49.879Z,28.60
2018-04-29T13:59:16.362Z,28.70
2018-04-29T14:01:43.059Z,28.90
2018-04-29T14:04:11.903Z,29.10
2018-04-29T14:06:38.474Z,29.10
2018-04-29T14:09:05.635Z,29.10
2018-04-29T14:11:33.597Z,28.90
2018-04-29T14:14:00.738Z,29.00
2018-04-29T14:16:27.247Z,28.90
2018-04-29T14:18:53.500Z,29.00
2018-04-29T14:21:19.732Z,29.20
2018-04-29T14:23:46.251Z,29.60
2018-04-29T14:26:14.055Z,29.70
2018-04-29T14:28:40.594Z,29.70
2018-04-29T14:31:07.809Z,29.60
2018-04-29T14:33:34.063Z,29.60
2018-04-29T14:36:01.207Z,29.70
2018-04-29T14:38:29.062Z,29.80
2018-04-29T14:40:56.010Z,29.90
2018-04-29T14:43:24.221Z,29.90
2018-04-29T14:45:51.171Z,29.80
2018-04-29T14:48:17.399Z,29.80
2018-04-29T14:50:44.015Z,29.70
2018-04-29T14:53:10.360Z,29.70
2018-04-29T14:55:36.592Z,29.90
2018-04-29T14:58:06.003Z,30.00
2018-04-29T15:00:33.138Z,30.20
2018-04-29T15:02:59.363Z,30.20
2018-04-29T15:05:26.736Z,30.40
2018-04-29T15:07:52.860Z,30.30
2018-04-29T15:10:19.253Z,30.50
2018-04-29T15:12:45.828Z,30.30
2018-04-29T15:15:12.060Z,30.00
2018-04-29T15:17:39.408Z,29.90
2018-04-29T15:20:05.733Z,29.80
2018-04-29T15:25:05.039Z,29.60
2018-04-29T15:27:31.479Z,29.60
2018-04-29T15:29:57.942Z,29.50
2018-04-29T15:32:24.903Z,29.50
2018-04-29T15:34:51.088Z,29.20
2018-04-29T15:37:18.532Z,29.00
2018-04-29T15:39:45.485Z,28.80
2018-04-29T15:42:13.423Z,28.20
2018-04-29T15:44:40.439Z,28.00
2018-04-29T15:47:06.981Z,28.00
2018-04-29T15:49:33.681Z,27.90
2018-04-29T15:52:00.034Z,27.70
2018-04-29T15:54:26.820Z,27.60
2018-04-29T15:56:53.180Z,27.50
2018-04-29T15:59:22.255Z,27.30
2018-04-29T16:01:48.447Z,27.20
2018-04-29T16:04:15.006Z,27.10
2018-04-29T16:06:41.714Z,27.00
2018-04-29T16:09:08.088Z,26.90
2018-04-29T16:11:34.503Z,26.80
2018-04-29T16:14:00.747Z,26.60
2018-04-29T16:16:28.334Z,26.70
2018-04-29T16:18:55.806Z,26.70
2018-04-29T16:21:22.265Z,26.70
2018-04-29T16:23:48.821Z,26.90
2018-04-29T16:26:16.382Z,27.00
2018-04-29T16:28:42.588Z,27.00
2018-04-29T16:31:09.613Z,27.10
2018-04-29T16:33:37.979Z,27.10
2018-04-29T16:36:04.786Z,27.00
2018-04-29T16:38:30.903Z,27.00
2018-04-29T16:41:00.044Z,27.00
2018-04-29T16:43:27.210Z,27.00
2018-04-29T16:45:54.202Z,26.80
2018-04-29T16:48:21.164Z,26.80
2018-04-29T16:50:47.322Z,26.70
2018-04-29T16:53:14.573Z,26.80
2018-04-29T16:55:40.761Z,26.70
2018-04-29T16:58:09.288Z,26.60
2018-04-29T17:00:35.802Z,26.50
2018-04-29T17:03:02.014Z,26.60
2018-04-29T17:05:28.199Z,26.60
2018-04-29T17:07:54.443Z,26.50
2018-04-29T17:10:20.507Z,26.50
2018-04-29T17:12:46.950Z,26.30
2018-04-29T17:15:14.730Z,26.20
2018-04-29T17:17:40.882Z,26.10
2018-04-29T17:20:10.086Z,26.10
2018-04-29T17:22:37.392Z,26.10
2018-04-29T17:25:04.192Z,26.10
2018-04-29T17:27:31.587Z,26.20
2018-04-29T17:30:00.278Z,26.40
2018-04-29T17:32:27.275Z,26.60
2018-04-29T17:34:54.342Z,26.70
2018-04-29T17:37:20.462Z,27.00
2018-04-29T17:39:50.377Z,27.20
2018-04-29T17:42:16.519Z,27.40
2018-04-29T17:44:49.467Z,27.50
2018-04-29T17:47:15.741Z,27.40
2018-04-29T17:49:41.876Z,27.30
2018-04-29T17:52:08.611Z,27.10
2018-04-29T17:54:35.449Z,26.80
2018-04-29T17:57:01.662Z,26.60
2018-04-29T17:59:28.246Z,26.30
2018-04-29T18:01:55.184Z,26.10
2018-04-29T18:04:21.930Z,25.90
2018-04-29T18:06:48.973Z,25.70
2018-04-29T18:09:16.114Z,25.60
2018-04-29T18:11:42.763Z,25.60
2018-04-29T18:14:12.088Z,25.60
2018-04-29T18:16:39.053Z,25.50
2018-04-29T18:19:07.681Z,25.40
2018-04-29T18:21:34.261Z,25.20
2018-04-29T18:24:01.820Z,25.10
2018-04-29T18:26:28.101Z,25.00
2018-04-29T18:28:54.224Z,24.90
2018-04-29T18:31:20.554Z,24.70
2018-04-29T18:33:47.672Z,24.50
2018-04-29T18:36:14.995Z,24.40
2018-04-29T18:38:43.003Z,24.30
2018-04-29T18:41:11.380Z,24.20
2018-04-29T18:43:38.983Z,24.20
2018-04-29T18:46:06.209Z,24.00
2018-04-29T18:48:32.706Z,23.90
2018-04-29T18:50:59.832Z,23.80
2018-04-29T18:53:25.826Z,23.70
2018-04-29T18:55:52.782Z,23.70
2018-04-29T18:58:19.609Z,23.60
2018-04-29T19:00:46.883Z,23.60
2018-04-29T19:03:14.142Z,23.60
2018-04-29T19:05:46.648Z,23.40
2018-04-29T19:08:12.819Z,23.40
2018-04-29T19:10:38.997Z,23.40
2018-04-29T19:13:05.702Z,23.30
2018-04-29T19:15:31.857Z,23.20
2018-04-29T19:17:58.135Z,23.20
2018-04-29T19:20:25.449Z,23.10
2018-04-29T19:22:52.294Z,23.00
2018-04-29T19:25:18.728Z,22.90
2018-04-29T19:27:45.521Z,22.90
2018-04-29T19:30:13.191Z,22.90
2018-04-29T19:32:39.786Z,22.90
2018-04-29T19:35:06.753Z,22.80
2018-04-29T19:37:33.840Z,22.70
2018-04-29T19:40:02.206Z,22.70
2018-04-29T19:42:35.118Z,22.70
2018-04-29T19:45:04.549Z,22.70
2018-04-29T19:47:47.610Z,22.60
2018-04-29T19:50:14.323Z,22.70
2018-04-29T19:52:40.602Z,22.70
2018-04-29T19:55:06.790Z,22.70
2018-04-29T19:57:35.386Z,22.50
2018-04-29T20:00:05.080Z,22.40
2018-04-29T20:05:10.961Z,22.30
2018-04-29T20:07:47.737Z,22.40
2018-04-29T20:10:15.716Z,22.30
2018-04-29T20:12:41.939Z,22.30
2018-04-29T20:17:52.550Z,22.30
2018-04-29T20:20:24.196Z,22.00
2018-04-29T20:22:54.365Z,22.00
2018-04-29T20:25:21.332Z,22.00
2018-04-29T20:27:48.424Z,21.90
2018-04-29T20:30:14.683Z,21.90
2018-04-29T20:32:49.745Z,21.90
2018-04-29T20:35:16.151Z,21.90
2018-04-29T20:37:42.292Z,22.00
2018-04-29T20:40:08.820Z,22.00
2018-04-29T20:42:35.693Z,21.90
2018-04-29T20:45:02.770Z,21.90
2018-04-29T20:47:30.223Z,21.80
2018-04-29T20:49:56.484Z,21.80
2018-04-29T20:52:22.692Z,21.70
2018-04-29T20:54:48.778Z,21.60
2018-04-29T20:57:15.140Z,21.60
2018-04-29T20:59:41.447Z,21.50
2018-04-29T21:02:11.727Z,21.40
2018-04-29T21:04:38.056Z,21.40
2018-04-29T21:07:04.337Z,21.40
2018-04-29T21:09:30.815Z,21.40
2018-04-29T21:11:59.910Z,21.40
2018-04-29T21:14:26.348Z,21.30
2018-04-29T21:20:47.969Z,21.30
2018-04-29T21:23:16.277Z,21.30
2018-04-29T21:25:44.446Z,21.10
2018-04-29T21:28:14.473Z,21.20
2018-04-29T21:30:41.338Z,21.10
2018-04-29T21:33:07.819Z,21.10
2018-04-29T21:35:34.100Z,21.00
2018-04-29T21:38:00.328Z,21.00
2018-04-29T21:40:26.426Z,21.00
2018-04-29T21:42:52.579Z,21.00
2018-04-29T21:45:19.043Z,21.00
2018-04-29T21:47:45.928Z,21.00
2018-04-29T21:50:12.301Z,21.00
2018-04-29T21:52:38.541Z,21.00
2018-04-29T21:55:04.831Z,21.00
2018-04-29T21:57:31.434Z,20.90
2018-04-29T21:59:57.861Z,21.00
2018-04-29T22:02:24.964Z,21.00
2018-04-29T22:04:51.902Z,21.00
2018-04-29T22:07:18.341Z,20.90
2018-04-29T22:09:46.697Z,21.00
2018-04-29T22:12:14.097Z,20.90
2018-04-29T22:14:40.245Z,21.00
2018-04-29T22:17:06.682Z,20.80
2018-04-29T22:19:33.060Z,20.90
2018-04-29T22:22:01.650Z,20.90
2018-04-29T22:24:28.844Z,20.80
2018-04-29T22:26:55.078Z,20.70
2018-04-29T22:29:22.018Z,20.70
2018-04-29T22:31:48.294Z,20.70
2018-04-29T22:34:15.117Z,20.80
2018-04-29T22:36:41.361Z,20.80
2018-04-29T22:39:07.673Z,20.70
2018-04-29T22:41:34.609Z,20.70
2018-04-29T22:44:03.926Z,20.60
2018-04-29T22:46:32.210Z,20.80
2018-04-29T22:48:59.078Z,20.70
2018-04-29T22:51:25.121Z,20.60
2018-04-29T22:53:51.254Z,20.70
2018-04-29T22:56:17.429Z,20.60
2018-04-29T22:58:44.963Z,20.60
2018-04-29T23:01:11.065Z,20.60
2018-04-29T23:03:39.279Z,20.60
2018-04-29T23:06:05.740Z,20.60
2018-04-29T23:08:32.128Z,20.60
2018-04-29T23:10:58.221Z,20.60
2018-04-29T23:13:25.226Z,20.60
2018-04-29T23:15:54.789Z,20.60
2018-04-29T23:18:21.911Z,20.60
2018-04-29T23:20:49.023Z,20.60
2018-04-29T23:23:23.092Z,20.60
2018-04-29T23:25:49.220Z,20.50
2018-04-29T23:28:15.285Z,20.50
2018-04-29T23:30:41.429Z,20.60
2018-04-29T23:33:08.344Z,20.60
2018-04-29T23:35:36.535Z,20.60
2018-04-29T23:38:03.692Z,20.50
2018-04-29T23:40:30.140Z,20.50
2018-04-29T23:42:57.762Z,20.50
2018-04-29T23:45:23.781Z,20.50
2018-04-29T23:47:51.225Z,20.50
2018-04-29T23:50:17.897Z,20.40
2018-04-29T23:52:45.011Z,20.50
2018-04-29T23:55:12.330Z,20.50
2018-04-29T23:57:38.612Z,20.50
